Time;durP1;ratioP1;P1;durP2;ratioP2;P2;SDS_P1;SDS_P2;PMS_P1;PMS_P2;Temp;Humidity;BMP_temperature;BMP_pressure;BME280_temperature;BME280_humidity;BME280_pressure;Samples;Min_cycle;Max_cycle;Signal;HPM_P1;HPM_P2
2021/09/29 00:00:30;;;;;;;6.25;4.47;;;;;;;15.14;85.00;98182.56;4977933;28;20041;-59
2021/09/29 00:02:56;;;;;;;8.00;4.53;;;;;;;15.11;84.26;98171.41;4979995;28;20053;-59
2021/09/29 00:05:21;;;;;;;7.63;5.18;;;;;;;14.76;85.40;98175.09;4978839;28;20109;-58
2021/09/29 00:07:46;;;;;;;8.30;4.55;;;;;;;14.98;85.08;98180.00;4979761;28;20269;-59
2021/09/29 00:10:13;;;;;;;7.63;4.10;;;;;;;15.14;84.84;98179.94;4978453;28;20042;-59
2021/09/29 00:12:39;;;;;;;9.57;5.35;;;;;;;14.89;85.31;98169.13;4994727;28;20520;-58
2021/09/29 00:15:13;;;;;;;8.25;4.95;;;;;;;14.86;85.14;98164.91;4978513;28;20107;-59
2021/09/29 00:17:39;;;;;;;6.45;4.78;;;;;;;15.03;84.39;98166.59;4979362;28;20066;-60
2021/09/29 00:20:06;;;;;;;6.88;4.35;;;;;;;14.76;86.24;98176.84;4978361;28;20153;-58
2021/09/29 00:22:32;;;;;;;5.97;4.50;;;;;;;14.57;88.54;98174.34;4979649;28;20092;-60
2021/09/29 00:24:57;;;;;;;8.43;4.90;;;;;;;14.42;89.12;98168.16;4979281;28;20034;-59
2021/09/29 00:27:23;;;;;;;8.30;5.32;;;;;;;14.70;87.51;98171.94;4978301;28;20130;-59
2021/09/29 00:29:50;;;;;;;6.38;4.75;;;;;;;14.70;88.37;98164.91;4979015;28;20030;-58
2021/09/29 00:32:18;;;;;;;9.45;5.45;;;;;;;14.69;87.27;98163.22;4978922;28;20112;-59
2021/09/29 00:34:43;;;;;;;6.57;5.15;;;;;;;14.54;87.81;98158.75;4979440;28;20715;-59
2021/09/29 00:37:09;;;;;;;7.05;4.78;;;;;;;14.87;87.77;98152.63;4994223;28;20042;-59
2021/09/29 00:39:35;;;;;;;8.13;5.03;;;;;;;14.84;86.77;98156.28;4978022;28;20101;-59
2021/09/29 00:42:00;;;;;;;6.65;4.75;;;;;;;14.74;86.86;98144.56;4993807;28;20133;-59
2021/09/29 00:44:26;;;;;;;6.22;4.20;;;;;;;15.20;85.63;98134.97;4979252;28;20083;-59
2021/09/29 00:46:52;;;;;;;8.68;4.07;;;;;;;15.33;83.88;98129.84;4978954;28;20034;-59
2021/09/29 00:49:18;;;;;;;6.28;4.70;;;;;;;14.46;87.42;98130.31;4978370;28;20088;-59
2021/09/29 00:51:43;;;;;;;7.78;4.90;;;;;;;14.27;89.68;98122.59;4978778;28;20100;-59
2021/09/29 00:54:09;;;;;;;6.60;4.70;;;;;;;14.39;89.21;98128.97;4978849;28;20097;-58
2021/09/29 00:56:35;;;;;;;7.50;4.80;;;;;;;14.49;88.60;98129.31;4977300;28;20030;-59
2021/09/29 00:59:01;;;;;;;6.82;4.57;;;;;;;14.62;88.11;98125.13;4978356;28;20033;-58
2021/09/29 01:01:26;;;;;;;8.15;5.53;;;;;;;14.64;87.18;98118.00;4978001;28;20041;-59
2021/09/29 01:03:53;;;;;;;7.47;4.95;;;;;;;14.34;89.10;98110.84;4978680;28;20031;-58
2021/09/29 01:06:27;;;;;;;7.80;4.78;;;;;;;14.59;89.41;98109.53;4978739;28;20046;-56
2021/09/29 01:09:01;;;;;;;12.30;5.60;;;;;;;14.72;88.08;98105.31;4978486;28;20056;-60
2021/09/29 01:12:05;;;;;;;8.13;5.68;;;;;;;14.54;87.89;98096.66;4978255;28;20134;-58
2021/09/29 01:14:39;;;;;;;6.88;4.68;;;;;;;14.82;87.99;98084.63;4977702;28;20245;-59
2021/09/29 01:17:05;;;;;;;8.52;5.05;;;;;;;14.67;87.81;98091.59;4977744;28;20072;-59
2021/09/29 01:20:07;;;;;;;8.90;5.57;;;;;;;14.82;86.85;98088.09;4976994;28;20026;-60
2021/09/29 01:22:51;;;;;;;9.95;5.00;;;;;;;15.22;85.68;98080.53;4978457;28;20050;-59
2021/09/29 01:25:40;;;;;;;7.45;5.60;;;;;;;15.04;86.81;98085.06;4978075;28;20065;-59
2021/09/29 01:28:06;;;;;;;7.47;4.70;;;;;;;15.23;85.90;98079.56;4958205;28;20042;-60
2021/09/29 01:30:33;;;;;;;8.95;5.10;;;;;;;14.91;86.69;98068.34;4978826;28;20038;-60
2021/09/29 01:32:59;;;;;;;8.70;4.95;;;;;;;14.92;87.28;98074.41;4982950;28;20091;-59
2021/09/29 01:35:25;;;;;;;5.95;4.07;;;;;;;15.15;86.60;98067.84;4982290;28;20024;-59
2021/09/29 01:37:51;;;;;;;8.75;5.22;;;;;;;15.07;86.57;98068.31;4982862;28;20042;-59
2021/09/29 01:40:16;;;;;;;8.38;5.35;;;;;;;14.84;87.59;98075.72;4981309;28;20057;-59
2021/09/29 01:42:41;;;;;;;7.40;4.50;;;;;;;15.03;87.42;98085.16;4982763;28;20030;-59
2021/09/29 01:45:07;;;;;;;6.85;4.78;;;;;;;14.61;89.98;98078.78;4982345;28;20679;-58
2021/09/29 01:47:33;;;;;;;8.30;5.03;;;;;;;14.79;88.52;98080.38;4982215;28;20037;-58
2021/09/29 01:50:02;;;;;;;6.75;4.75;;;;;;;14.97;88.02;98082.88;4982272;28;20026;-59
2021/09/29 01:52:34;;;;;;;12.93;4.90;;;;;;;14.73;88.68;98085.97;4981682;28;20555;-58
2021/09/29 01:55:00;;;;;;;12.13;5.10;;;;;;;14.68;89.57;98081.91;4982223;28;20137;-59
2021/09/29 01:57:26;;;;;;;6.30;4.75;;;;;;;14.60;89.54;98087.59;4982124;28;20097;-59
2021/09/29 01:59:51;;;;;;;7.63;4.32;;;;;;;14.42;89.82;98090.28;4979866;28;20738;-59
2021/09/29 02:02:16;;;;;;;10.60;5.15;;;;;;;14.58;89.46;98089.47;4981463;28;20065;-59
2021/09/29 02:04:46;;;;;;;8.43;4.80;;;;;;;15.00;88.14;98090.59;4982429;28;20030;-59
2021/09/29 02:07:12;;;;;;;6.72;4.18;;;;;;;15.08;87.35;98085.75;4980215;28;20673;-59
2021/09/29 02:09:37;;;;;;;6.97;4.30;;;;;;;14.56;90.27;98093.94;4981555;28;20511;-59
2021/09/29 02:12:03;;;;;;;7.80;4.60;;;;;;;14.84;88.20;98088.84;4981499;28;20062;-59
2021/09/29 02:14:28;;;;;;;8.02;5.10;;;;;;;14.79;88.10;98095.28;4981856;28;20038;-60
2021/09/29 02:16:55;;;;;;;6.65;5.00;;;;;;;14.54;89.20;98101.91;4981502;28;20202;-58
2021/09/29 02:19:21;;;;;;;12.27;4.82;;;;;;;14.64;90.14;98103.09;4981768;28;20031;-61
2021/09/29 02:21:47;;;;;;;9.77;4.10;;;;;;;14.68;88.79;98111.63;4980798;28;20034;-59
2021/09/29 02:24:13;;;;;;;6.47;4.40;;;;;;;14.71;88.41;98118.50;4981837;28;20030;-59
2021/09/29 02:26:39;;;;;;;6.47;4.47;;;;;;;14.73;88.39;98117.47;4980296;28;20030;-58
2021/09/29 02:29:06;;;;;;;8.90;4.88;;;;;;;14.62;87.32;98115.44;4981329;28;20022;-58
2021/09/29 02:31:32;;;;;;;6.85;4.60;;;;;;;14.51;88.45;98128.28;4980816;28;20078;-59
2021/09/29 02:33:57;;;;;;;7.38;4.45;;;;;;;14.66;88.54;98129.25;4981663;28;20026;-59
2021/09/29 02:36:23;;;;;;;8.23;4.55;;;;;;;14.52;89.06;98135.25;4981189;28;20038;-59
2021/09/29 02:38:51;;;;;;;9.80;4.70;;;;;;;14.70;87.85;98140.44;4981300;28;20034;-59
2021/09/29 02:41:16;;;;;;;6.95;4.90;;;;;;;14.45;88.94;98139.97;4980240;28;20571;-61
2021/09/29 02:43:41;;;;;;;6.78;4.53;;;;;;;14.58;89.23;98144.59;4981547;28;20040;-59
2021/09/29 02:46:07;;;;;;;9.60;5.35;;;;;;;14.43;89.38;98147.09;4980956;28;20676;-58
2021/09/29 02:48:32;;;;;;;7.65;5.00;;;;;;;14.56;89.52;98149.06;4981580;28;20124;-59
2021/09/29 02:50:58;;;;;;;7.15;4.43;;;;;;;14.55;89.73;98156.06;4980705;28;20049;-59
2021/09/29 02:53:28;;;;;;;6.95;5.25;;;;;;;14.53;90.66;98151.84;4980837;28;20026;-58
2021/09/29 02:55:58;;;;;;;7.20;4.93;;;;;;;14.59;90.52;98151.53;4980795;28;20844;-59
2021/09/29 02:58:23;;;;;;;7.10;5.03;;;;;;;14.46;92.00;98152.19;4980698;28;20026;-58
2021/09/29 03:00:51;;;;;;;9.00;5.00;;;;;;;14.37;91.97;98155.31;4980333;28;20038;-59
2021/09/29 03:03:17;;;;;;;9.98;6.00;;;;;;;14.49;92.05;98155.56;4981151;28;20030;-59
2021/09/29 03:05:42;;;;;;;10.20;5.57;;;;;;;14.48;93.15;98148.63;4980749;28;20039;-59
2021/09/29 03:08:07;;;;;;;10.57;6.22;;;;;;;14.39;92.09;98145.56;4979959;28;20081;-59
2021/09/29 03:10:35;;;;;;;8.23;5.47;;;;;;;14.92;89.70;98148.78;4979649;28;20100;-59
2021/09/29 03:13:00;;;;;;;9.15;5.43;;;;;;;14.84;89.26;98141.34;4979746;28;20026;-59
2021/09/29 03:15:26;;;;;;;9.60;6.00;;;;;;;14.94;88.94;98135.59;4980863;28;20038;-59
2021/09/29 03:17:51;;;;;;;6.57;4.97;;;;;;;14.96;90.19;98125.84;4981116;28;20018;-59
2021/09/29 03:20:16;;;;;;;8.10;5.88;;;;;;;14.54;91.18;98124.66;4980215;28;20180;-59
2021/09/29 03:22:42;;;;;;;7.75;5.28;;;;;;;14.36;93.14;98119.50;4980834;28;20069;-59
2021/09/29 03:25:07;;;;;;;6.65;4.80;;;;;;;14.73;92.19;98109.59;4978860;28;20030;-59
2021/09/29 03:27:33;;;;;;;8.32;5.18;;;;;;;15.15;87.78;98104.63;4981743;28;20030;-59
2021/09/29 03:29:58;;;;;;;6.40;5.00;;;;;;;14.94;90.37;98104.94;4980174;28;20070;-58
2021/09/29 03:32:23;;;;;;;9.70;6.20;;;;;;;14.54;91.95;98095.78;4979089;28;20049;-59
2021/09/29 03:34:49;;;;;;;6.47;5.00;;;;;;;14.95;90.50;98103.16;4980094;28;20029;-59
2021/09/29 03:37:14;;;;;;;8.65;4.82;;;;;;;15.01;91.22;98108.03;4980054;28;20046;-59
2021/09/29 03:39:39;;;;;;;10.10;4.93;;;;;;;14.92;89.91;98098.06;4979909;28;20026;-59
2021/09/29 03:42:05;;;;;;;8.02;5.10;;;;;;;15.00;89.69;98099.31;4980278;28;20874;-60
2021/09/29 03:44:30;;;;;;;7.32;4.60;;;;;;;14.90;89.99;98113.06;4979954;28;20500;-59
2021/09/29 03:46:55;;;;;;;8.23;5.05;;;;;;;14.93;89.63;98113.75;4980360;28;20039;-59
2021/09/29 03:49:21;;;;;;;9.70;5.57;;;;;;;14.45;91.48;98132.09;4980028;28;20026;-59
2021/09/29 03:51:46;;;;;;;9.57;5.85;;;;;;;14.69;91.30;98130.88;4979699;28;20042;-60
2021/09/29 03:54:11;;;;;;;11.02;5.65;;;;;;;14.61;91.49;98139.16;4979436;28;20066;-59
2021/09/29 03:56:37;;;;;;;5.85;4.45;;;;;;;15.30;89.25;98137.06;4979903;28;20104;-59
2021/09/29 03:59:02;;;;;;;9.55;5.30;;;;;;;14.77;91.54;98134.75;4979529;28;20647;-59
2021/09/29 04:01:28;;;;;;;8.57;5.80;;;;;;;14.61;92.11;98129.53;4979884;28;20034;-59
2021/09/29 04:03:53;;;;;;;9.55;6.07;;;;;;;14.73;91.96;98125.34;4979837;28;20508;-59
2021/09/29 04:06:19;;;;;;;7.15;5.53;;;;;;;14.48;93.06;98122.38;4979698;28;20703;-59
2021/09/29 04:08:44;;;;;;;9.63;6.05;;;;;;;14.46;91.99;98125.94;4979573;28;20019;-59
2021/09/29 04:11:10;;;;;;;11.68;6.38;;;;;;;14.44;92.28;98121.69;4978976;28;20046;-59
2021/09/29 04:13:36;;;;;;;10.60;6.60;;;;;;;14.51;92.04;98115.16;4978332;28;20783;-59
2021/09/29 04:16:01;;;;;;;9.60;5.70;;;;;;;14.76;91.92;98112.06;4979389;28;20767;-59
2021/09/29 04:18:27;;;;;;;8.52;5.72;;;;;;;14.73;90.15;98121.91;4978293;28;20026;-59
2021/09/29 04:20:52;;;;;;;10.02;5.97;;;;;;;14.50;91.81;98121.38;4979290;28;20061;-59
2021/09/29 04:23:18;;;;;;;11.05;6.40;;;;;;;13.97;94.87;98112.84;4978477;28;20034;-59
2021/09/29 04:25:43;;;;;;;10.02;6.32;;;;;;;14.31;91.87;98107.56;4978307;28;20042;-59
2021/09/29 04:28:09;;;;;;;9.50;5.78;;;;;;;14.58;92.12;98105.22;4979239;28;20026;-58
2021/09/29 04:30:34;;;;;;;9.63;6.68;;;;;;;14.63;90.44;98095.28;4977239;28;20096;-59
2021/09/29 04:33:00;;;;;;;11.00;6.93;;;;;;;14.13;94.14;98096.28;4979824;28;20026;-60
2021/09/29 04:35:28;;;;;;;14.63;6.35;;;;;;;14.52;92.28;98098.50;4979286;28;20527;-59
2021/09/29 04:37:54;;;;;;;10.63;5.78;;;;;;;14.45;93.11;98113.75;4977881;28;20042;-59
2021/09/29 04:40:20;;;;;;;20.45;6.38;;;;;;;14.26;94.02;98118.28;4978436;28;20093;-60
2021/09/29 04:42:45;;;;;;;9.65;6.47;;;;;;;14.34;93.05;98116.09;4979629;28;20041;-59
2021/09/29 04:45:10;;;;;;;9.65;5.90;;;;;;;14.37;92.91;98107.22;4978545;28;20102;-59
2021/09/29 04:47:36;;;;;;;9.00;5.18;;;;;;;14.69;90.65;98115.97;4979287;28;20048;-59
2021/09/29 04:50:02;;;;;;;10.48;6.22;;;;;;;14.76;90.27;98122.56;4977646;28;20026;-59
2021/09/29 04:52:27;;;;;;;9.32;6.45;;;;;;;14.94;90.06;98119.81;4979015;28;20180;-59
2021/09/29 04:54:53;;;;;;;12.02;6.68;;;;;;;14.57;90.94;98132.34;4979145;28;20117;-60
2021/09/29 04:57:19;;;;;;;12.40;6.47;;;;;;;14.93;90.85;98142.63;4978711;28;20061;-59
2021/09/29 04:59:44;;;;;;;11.40;6.75;;;;;;;14.43;94.20;98152.34;4978677;28;20030;-59
2021/09/29 05:02:11;;;;;;;14.90;6.47;;;;;;;14.72;93.09;98147.31;4969854;28;20034;-59
2021/09/29 05:04:38;;;;;;;15.35;6.95;;;;;;;14.86;95.12;98153.56;4979990;28;20081;-59
2021/09/29 05:07:04;;;;;;;12.63;6.65;;;;;;;14.61;92.75;98144.41;4981131;28;20046;-59
2021/09/29 05:09:30;;;;;;;11.27;6.70;;;;;;;14.84;95.35;98149.22;4980303;28;20033;-59
2021/09/29 05:12:29;;;;;;;11.77;6.38;;;;;;;14.87;92.88;98139.50;4980638;28;20088;-60
2021/09/29 05:14:55;;;;;;;13.60;6.40;;;;;;;14.67;92.42;98144.09;4976106;28;20034;-59
2021/09/29 05:17:21;;;;;;;12.90;6.55;;;;;;;15.06;92.19;98139.31;4980986;28;20042;-60
2021/09/29 05:19:47;;;;;;;12.27;6.60;;;;;;;14.74;94.26;98134.94;4980396;28;20026;-60
2021/09/29 05:22:12;;;;;;;9.15;5.60;;;;;;;15.41;92.55;98132.84;4981234;28;20053;-60
2021/09/29 05:24:38;;;;;;;10.48;5.72;;;;;;;15.03;92.94;98140.31;4980904;28;20034;-60
2021/09/29 05:27:03;;;;;;;9.82;6.13;;;;;;;14.81;90.11;98151.19;4979673;28;20038;-61
2021/09/29 05:29:30;;;;;;;12.40;6.22;;;;;;;14.73;94.40;98149.00;4979494;28;20022;-59
2021/09/29 05:31:55;;;;;;;12.35;6.32;;;;;;;14.88;90.33;98147.28;4980128;28;20046;-60
2021/09/29 05:34:24;;;;;;;10.60;6.57;;;;;;;14.87;91.71;98145.59;4981307;28;20023;-59
2021/09/29 05:36:49;;;;;;;10.88;6.57;;;;;;;14.83;91.26;98150.19;4980177;28;20041;-59
2021/09/29 05:39:14;;;;;;;8.68;5.35;;;;;;;14.97;90.84;98146.75;4980157;28;20026;-59
2021/09/29 05:41:40;;;;;;;8.75;6.00;;;;;;;15.41;88.72;98160.91;4980980;28;20039;-59
2021/09/29 05:44:05;;;;;;;13.07;7.35;;;;;;;14.63;91.62;98147.78;4981332;28;20069;-59
2021/09/29 05:46:31;;;;;;;12.50;7.55;;;;;;;14.80;91.40;98145.09;4980590;28;20464;-60
2021/09/29 05:48:57;;;;;;;13.35;7.43;;;;;;;15.07;91.03;98155.00;4980816;28;20054;-59
2021/09/29 05:51:22;;;;;;;12.68;7.93;;;;;;;14.75;90.63;98162.88;4978889;28;20150;-59
2021/09/29 05:53:48;;;;;;;12.73;7.43;;;;;;;14.94;92.52;98162.72;4979881;28;20520;-60
2021/09/29 05:56:14;;;;;;;13.57;8.90;;;;;;;14.91;92.04;98156.78;4975056;28;20455;-60
2021/09/29 05:58:40;;;;;;;14.70;9.50;;;;;;;14.28;93.04;98158.44;4979004;28;20687;-59
2021/09/29 06:01:06;;;;;;;12.25;8.27;;;;;;;14.95;92.14;98158.31;4980166;28;20038;-59
2021/09/29 06:03:32;;;;;;;17.33;10.43;;;;;;;14.49;93.20;98156.41;4980792;28;20038;-59
2021/09/29 06:05:57;;;;;;;14.35;7.68;;;;;;;15.44;89.27;98158.13;4980415;28;20039;-59
2021/09/29 06:08:23;;;;;;;15.35;9.50;;;;;;;14.83;90.46;98162.44;4980876;28;20026;-60
2021/09/29 06:10:48;;;;;;;14.23;9.70;;;;;;;14.88;90.93;98156.94;4979189;28;20053;-60
2021/09/29 06:13:15;;;;;;;19.02;9.48;;;;;;;15.00;89.31;98156.28;4980490;28;20037;-60
2021/09/29 06:15:45;;;;;;;15.55;10.38;;;;;;;15.05;89.69;98159.47;4979933;28;20113;-59
2021/09/29 06:18:14;;;;;;;17.80;10.57;;;;;;;14.88;90.26;98164.81;4984678;28;20030;-60
2021/09/29 06:20:45;;;;;;;15.13;10.13;;;;;;;14.76;90.87;98167.22;4984747;28;20072;-61
2021/09/29 06:23:11;;;;;;;17.03;10.90;;;;;;;14.66;91.26;98168.63;4985533;28;20026;-60
2021/09/29 06:25:37;;;;;;;17.98;9.20;;;;;;;14.76;91.07;98172.47;4985026;28;20038;-58
2021/09/29 06:28:03;;;;;;;13.90;9.63;;;;;;;15.01;90.45;98173.72;4985839;28;20032;-58
2021/09/29 06:30:28;;;;;;;18.20;10.18;;;;;;;14.81;91.97;98178.31;4999065;28;20110;-59
2021/09/29 06:32:53;;;;;;;14.77;9.25;;;;;;;14.96;91.21;98176.59;4985297;28;20029;-59
2021/09/29 06:35:19;;;;;;;13.85;9.25;;;;;;;15.15;90.06;98176.41;4984451;28;20089;-59
2021/09/29 06:37:44;;;;;;;14.57;9.40;;;;;;;15.13;89.24;98175.66;4985699;28;20030;-59
2021/09/29 06:40:18;;;;;;;15.32;9.15;;;;;;;15.14;88.85;98176.50;4984312;28;20030;-59
2021/09/29 06:42:45;;;;;;;12.98;8.75;;;;;;;15.16;90.20;98174.63;4985082;28;20045;-59
2021/09/29 06:45:12;;;;;;;16.55;9.25;;;;;;;15.25;87.53;98181.13;4984782;28;20619;-59
2021/09/29 06:47:39;;;;;;;13.52;9.63;;;;;;;15.38;87.09;98182.13;5000388;28;20038;-58
2021/09/29 06:50:06;;;;;;;15.27;9.68;;;;;;;15.34;86.55;98186.69;4980745;28;20495;-59
2021/09/29 06:52:31;;;;;;;15.02;9.15;;;;;;;15.34;89.42;98188.50;4981759;28;20088;-60
2021/09/29 06:54:56;;;;;;;14.82;9.30;;;;;;;15.27;88.72;98189.78;4985518;28;20030;-59
2021/09/29 06:57:22;;;;;;;14.88;9.38;;;;;;;15.11;89.01;98201.16;4983810;28;20045;-60
2021/09/29 06:59:47;;;;;;;13.23;8.45;;;;;;;15.20;89.16;98200.66;4984402;28;20026;-59
2021/09/29 07:02:13;;;;;;;13.85;8.88;;;;;;;15.96;87.16;98209.44;4983951;28;20072;-59
2021/09/29 07:04:38;;;;;;;12.80;8.73;;;;;;;16.32;86.82;98197.63;4985243;28;20434;-59
2021/09/29 07:07:04;;;;;;;12.63;8.88;;;;;;;15.91;84.08;98196.56;4984291;28;20510;-60
2021/09/29 07:09:29;;;;;;;16.02;9.57;;;;;;;16.04;85.33;98206.34;4984087;28;20033;-60
2021/09/29 07:11:54;;;;;;;14.13;9.68;;;;;;;15.63;86.24;98210.47;4983193;28;20078;-59
2021/09/29 07:14:20;;;;;;;18.80;9.32;;;;;;;16.71;83.03;98210.13;4984728;28;20715;-61
2021/09/29 07:16:46;;;;;;;11.75;8.75;;;;;;;17.00;80.70;98222.41;4982730;28;20042;-59
2021/09/29 07:19:12;;;;;;;10.20;7.65;;;;;;;17.26;80.34;98229.50;4981796;28;20042;-59
2021/09/29 07:21:37;;;;;;;10.48;7.07;;;;;;;16.99;80.47;98224.22;4982729;28;20050;-60
2021/09/29 07:24:04;;;;;;;13.82;7.95;;;;;;;16.89;80.84;98225.72;4983376;28;20022;-59
2021/09/29 07:26:29;;;;;;;13.02;7.43;;;;;;;17.25;79.38;98224.34;4981577;28;20190;-60
2021/09/29 07:28:55;;;;;;;12.32;6.68;;;;;;;18.96;75.31;98234.75;4981739;28;20030;-60
2021/09/29 07:31:20;;;;;;;12.07;6.68;;;;;;;18.84;75.79;98231.19;4982212;28;20045;-60
2021/09/29 07:33:46;;;;;;;11.07;7.03;;;;;;;18.40;73.23;98237.78;4983434;28;20037;-61
2021/09/29 07:36:12;;;;;;;11.73;7.43;;;;;;;17.02;77.28;98237.22;4982431;28;20042;-60
2021/09/29 07:38:37;;;;;;;13.50;7.57;;;;;;;17.73;75.07;98237.88;4982870;28;20026;-60
2021/09/29 07:41:02;;;;;;;13.68;7.28;;;;;;;18.03;74.32;98244.72;4981817;28;20038;-60
2021/09/29 07:43:28;;;;;;;9.77;6.63;;;;;;;17.50;75.07;98236.78;4983358;28;20018;-60
2021/09/29 07:45:53;;;;;;;13.50;6.55;;;;;;;17.88;74.37;98236.03;4982395;28;20121;-60
2021/09/29 07:48:18;;;;;;;10.55;6.43;;;;;;;18.52;72.72;98238.72;4982434;28;20455;-60
2021/09/29 07:50:44;;;;;;;12.25;6.57;;;;;;;18.19;72.16;98240.09;4981930;28;20459;-60
2021/09/29 07:53:11;;;;;;;7.78;6.20;;;;;;;18.50;72.23;98244.09;4982310;28;20034;-61
2021/09/29 07:55:36;;;;;;;13.07;6.20;;;;;;;18.52;70.71;98245.78;4980952;28;20150;-60
2021/09/29 07:58:02;;;;;;;7.88;6.05;;;;;;;18.68;70.21;98247.25;4982630;28;20117;-60
2021/09/29 08:00:27;;;;;;;10.85;6.00;;;;;;;19.19;68.04;98248.97;4981584;28;20041;-61
2021/09/29 08:02:53;;;;;;;11.43;5.82;;;;;;;20.29;64.20;98240.84;4981742;28;20112;-62
2021/09/29 08:05:20;;;;;;;7.25;5.05;;;;;;;21.53;60.38;98248.75;4981971;28;20022;-60
2021/09/29 08:07:50;;;;;;;10.60;4.88;;;;;;;22.03;61.45;98241.03;4981845;28;20028;-61
2021/09/29 08:10:16;;;;;;;7.97;4.40;;;;;;;21.20;59.56;98239.91;4981181;28;20570;-61
2021/09/29 08:12:41;;;;;;;9.95;3.90;;;;;;;21.83;55.92;98241.88;4982421;28;20172;-61
2021/09/29 08:15:12;;;;;;;6.95;3.50;;;;;;;23.23;50.39;98246.69;4981645;28;20657;-59
2021/09/29 08:17:42;;;;;;;6.18;3.30;;;;;;;25.64;49.38;98240.16;4982031;28;20026;-60
2021/09/29 08:20:09;;;;;;;5.70;3.58;;;;;;;27.28;45.93;98246.63;4981499;28;20495;-61
2021/09/29 08:22:35;;;;;;;5.85;2.92;;;;;;;27.29;44.75;98248.28;4982131;28;20419;-61
2021/09/29 08:32:55;;;;;;;6.43;2.88;;;;;;;23.15;49.24;98249.19;4962091;28;20109;-61
2021/09/29 08:35:34;;;;;;;6.28;2.85;;;;;;;22.47;51.43;98252.38;4981339;28;20499;-60
2021/09/29 08:38:08;;;;;;;6.07;2.83;;;;;;;24.35;48.00;98261.41;4980969;28;20034;-61
2021/09/29 08:41:02;;;;;;;7.43;2.72;;;;;;;23.92;49.01;98262.75;4980437;28;20053;-61
2021/09/29 08:45:59;;;;;;;5.68;2.63;;;;;;;22.27;48.90;98263.88;4981343;28;20045;-61
2021/09/29 08:48:38;;;;;;;7.35;2.70;;;;;;;22.54;50.34;98263.34;4981272;28;20566;-61
2021/09/29 08:54:01;;;;;;;4.35;2.58;;;;;;;21.47;52.21;98262.53;4982066;28;20030;-61
2021/09/29 09:18:09;;;;;;;6.35;2.60;;;;;;;23.54;47.97;98254.56;4980775;28;20541;-63
2021/09/29 09:20:40;;;;;;;6.22;2.42;;;;;;;22.46;48.28;98242.75;4980233;28;20467;-61
2021/09/29 09:23:05;;;;;;;5.85;2.33;;;;;;;21.64;51.19;98251.38;4979969;28;20500;-60
2021/09/29 09:25:40;;;;;;;6.63;2.35;;;;;;;21.25;52.17;98250.97;4995811;28;20031;-61
2021/09/29 09:28:10;;;;;;;5.03;2.30;;;;;;;20.89;53.09;98255.59;4980705;28;20112;-60
2021/09/29 09:30:37;;;;;;;4.22;2.25;;;;;;;21.65;52.26;98250.41;4979910;28;20058;-61
2021/09/29 09:33:03;;;;;;;4.70;2.40;;;;;;;22.66;49.21;98250.78;4980705;28;20624;-60
2021/09/29 09:35:50;;;;;;;8.02;2.50;;;;;;;23.06;50.14;98245.50;4980768;28;20038;-61
2021/09/29 09:38:23;;;;;;;4.05;2.20;;;;;;;23.46;49.15;98243.78;4980558;28;20077;-63
2021/09/29 09:40:59;;;;;;;4.95;2.10;;;;;;;24.81;45.51;98244.59;4980208;28;20494;-60
2021/09/29 09:43:26;;;;;;;4.45;2.00;;;;;;;23.55;47.78;98234.13;4980836;28;20030;-62
2021/09/29 09:45:53;;;;;;;5.63;2.30;;;;;;;23.46;47.12;98235.78;4980210;28;20034;-61
2021/09/29 09:48:24;;;;;;;6.18;2.10;;;;;;;23.43;47.37;98238.72;4980620;28;20511;-61
2021/09/29 09:50:55;;;;;;;3.72;1.95;;;;;;;22.49;50.42;98242.47;4980008;28;20701;-61
2021/09/29 09:53:21;;;;;;;4.90;2.17;;;;;;;22.71;49.93;98240.59;4984281;28;20113;-61
2021/09/29 09:55:50;;;;;;;5.00;1.90;;;;;;;22.35;51.71;98234.84;4983033;28;20284;-62
2021/09/29 09:58:15;;;;;;;4.45;1.83;;;;;;;22.31;51.33;98233.41;4984621;28;20030;-61
2021/09/29 10:00:41;;;;;;;4.68;1.65;;;;;;;21.64;52.18;98235.44;4983652;28;20044;-61
2021/09/29 10:03:06;;;;;;;3.20;1.50;;;;;;;22.52;50.36;98231.56;4984805;28;20189;-61
2021/09/29 10:05:32;;;;;;;4.95;1.52;;;;;;;21.75;50.78;98224.78;4983886;28;20093;-60
2021/09/29 10:08:00;;;;;;;7.10;1.67;;;;;;;21.59;51.70;98229.66;4984444;28;20030;-60
2021/09/29 10:27:14;;;;;;;3.35;1.40;;;;;;;24.09;43.73;98223.88;4982946;28;19961;-61
2021/09/29 10:29:52;;;;;;;6.40;1.77;;;;;;;22.66;44.55;98211.78;4982164;28;20040;-61
2021/09/29 10:32:27;;;;;;;2.55;1.42;;;;;;;23.60;44.69;98213.22;4982540;28;20538;-61
2021/09/29 10:35:26;;;;;;;5.20;1.70;;;;;;;23.09;44.02;98209.81;4983028;28;20041;-61
2021/09/29 10:40:57;;;;;;;;;;;;;;;;;;;;;
2021/09/29 10:43:21;;;;;;;3.42;1.40;;;;;;;20.74;47.68;98203.81;4983120;28;20033;-60
2021/09/29 10:46:01;;;;;;;3.45;1.30;;;;;;;20.63;47.33;98209.13;4981972;28;20449;-60
2021/09/29 10:48:39;;;;;;;5.35;1.40;;;;;;;20.40;48.92;98206.41;4981226;28;20088;-60
2021/09/29 11:30:41;;;;;;;4.57;1.42;;;;;;;22.60;45.37;98206.16;4982223;28;20042;-61
2021/09/29 11:33:11;;;;;;;3.10;1.30;;;;;;;21.62;47.67;98200.22;4982823;28;20283;-61
2021/09/29 11:35:56;;;;;;;4.57;1.55;;;;;;;21.13;48.11;98198.91;4982426;28;20069;-61
2021/09/29 12:08:50;;;;;;;3.20;1.30;;;;;;;20.69;45.82;98166.22;4982351;28;20061;-60
2021/09/29 12:11:23;;;;;;;2.72;1.33;;;;;;;21.07;45.01;98175.56;4980684;28;20038;-65
2021/09/29 12:14:00;;;;;;;2.90;1.20;;;;;;;21.15;45.10;98170.47;4981735;28;20034;-61
2021/09/29 12:16:37;;;;;;;4.97;1.55;;;;;;;21.05;46.53;98169.53;4980594;28;20038;-61
2021/09/29 12:19:09;;;;;;;4.70;1.50;;;;;;;20.94;48.71;98163.28;4981983;28;20101;-62
2021/09/29 12:21:39;;;;;;;4.60;1.65;;;;;;;20.88;46.57;98163.78;4981056;28;20627;-61
2021/09/29 12:24:07;;;;;;;3.60;1.38;;;;;;;21.12;46.64;98160.13;4981872;28;20077;-60
2021/09/29 12:26:47;;;;;;;3.72;1.40;;;;;;;21.37;46.50;98159.75;4981860;28;20936;-61
2021/09/29 12:29:18;;;;;;;3.42;1.33;;;;;;;20.84;46.79;98154.38;4980552;28;20038;-61
2021/09/29 12:31:50;;;;;;;4.80;1.20;;;;;;;21.17;48.83;98153.47;4981041;28;20672;-61
2021/09/29 12:34:45;;;;;;;6.47;1.52;;;;;;;20.87;46.64;98146.19;4981800;28;20061;-61
2021/09/29 12:37:12;;;;;;;4.32;1.30;;;;;;;21.26;46.19;98151.84;4981570;28;20034;-61
2021/09/29 12:39:38;;;;;;;3.10;1.42;;;;;;;21.15;47.16;98149.25;4980144;28;20034;-60
2021/09/29 12:42:04;;;;;;;4.60;1.30;;;;;;;21.32;46.81;98138.09;4981126;28;20046;-61
2021/09/29 12:44:30;;;;;;;5.93;1.70;;;;;;;21.51;45.82;98139.25;4981536;28;20026;-60
2021/09/29 12:49:49;;;;;;;4.72;1.80;;;;;;;21.72;44.86;98129.44;4970286;28;20126;-60
2021/09/29 12:52:31;;;;;;;5.47;1.70;;;;;;;22.06;46.18;98137.19;4981192;28;20105;-60
2021/09/29 12:54:58;;;;;;;5.05;1.50;;;;;;;21.86;46.01;98136.25;4981759;28;20492;-61
2021/09/29 12:57:27;;;;;;;5.70;1.60;;;;;;;21.95;45.85;98139.94;4980937;28;20077;-61
2021/09/29 12:59:54;;;;;;;3.67;1.50;;;;;;;21.84;44.51;98132.06;4980580;28;20039;-61
2021/09/29 13:02:19;;;;;;;3.65;1.40;;;;;;;21.90;46.12;98131.53;4980921;28;20532;-61
2021/09/29 13:04:44;;;;;;;5.03;1.52;;;;;;;21.85;45.56;98136.38;4981508;28;20077;-60
2021/09/29 13:07:10;;;;;;;5.15;1.40;;;;;;;22.00;47.37;98135.09;4980459;28;20138;-61
2021/09/29 13:09:35;;;;;;;5.40;1.42;;;;;;;22.19;44.54;98133.50;4981026;28;20057;-61
2021/09/29 13:12:01;;;;;;;4.55;1.30;;;;;;;22.06;47.24;98139.88;4980680;28;20057;-62
2021/09/29 13:14:26;;;;;;;3.15;1.13;;;;;;;21.87;44.07;98126.47;4980941;28;20480;-62
2021/09/29 13:16:51;;;;;;;3.33;1.30;;;;;;;21.50;46.23;98126.94;4980829;28;20137;-61
2021/09/29 13:19:26;;;;;;;5.43;1.40;;;;;;;21.99;45.81;98137.88;4981178;28;20030;-61
2021/09/29 13:21:54;;;;;;;2.53;1.20;;;;;;;21.45;45.55;98139.75;4980219;28;20407;-61
2021/09/29 13:35:16;;;;;;;3.13;1.20;;;;;;;21.35;45.66;98147.59;4981640;28;20056;-61
2021/09/29 13:37:41;;;;;;;2.70;1.10;;;;;;;21.24;47.36;98145.81;4980479;28;20209;-61
2021/09/29 13:40:07;;;;;;;2.95;1.10;;;;;;;21.11;46.11;98142.50;4978961;28;20042;-62
2021/09/29 13:42:33;;;;;;;5.15;1.63;;;;;;;21.20;46.99;98140.91;4980055;28;20173;-60
2021/09/29 13:44:59;;;;;;;5.97;1.50;;;;;;;21.83;45.56;98127.72;4981330;28;20087;-61
2021/09/29 13:47:25;;;;;;;7.40;1.40;;;;;;;21.48;48.15;98139.50;4980781;28;20038;-62
2021/09/29 13:49:50;;;;;;;7.65;1.38;;;;;;;21.68;45.90;98130.69;4980892;28;20026;-61
2021/09/29 13:52:19;;;;;;;3.97;1.30;;;;;;;21.30;46.03;98137.38;4979559;28;20030;-61